sensor_id;sensor_type;location;lat;lon;timestamp;temperature;humidity
68177;DHT22;56478;50.982;7.032;2024-03-23T00:51:20;9.90;86.35
68177;DHT22;56478;50.982;7.032;2024-03-23T00:56:12;9.83;86.80
68177;DHT22;56478;50.982;7.032;2024-03-23T00:58:38;9.81;86.62
68177;DHT22;56478;50.982;7.032;2024-03-23T01:01:03;9.88;86.41
68177;DHT22;56478;50.982;7.032;2024-03-23T01:03:30;9.94;86.28
68177;DHT22;56478;50.982;7.032;2024-03-23T01:05:59;9.94;86.09
68177;DHT22;56478;50.982;7.032;2024-03-23T01:08:25;9.87;86.45
68177;DHT22;56478;50.982;7.032;2024-03-23T01:10:58;9.84;85.69
68177;DHT22;56478;50.982;7.032;2024-03-23T01:13:25;9.90;86.03
68177;DHT22;56478;50.982;7.032;2024-03-23T01:15:51;9.90;85.81
68177;DHT22;56478;50.982;7.032;2024-03-23T01:18:20;9.88;86.32
68177;DHT22;56478;50.982;7.032;2024-03-23T01:20:46;9.78;86.36
68177;DHT22;56478;50.982;7.032;2024-03-23T01:23:12;9.66;85.40
68177;DHT22;56478;50.982;7.032;2024-03-23T01:25:38;9.52;85.26
68177;DHT22;56478;50.982;7.032;2024-03-23T01:28:04;9.42;84.91
68177;DHT22;56478;50.982;7.032;2024-03-23T01:30:32;9.47;85.25
68177;DHT22;56478;50.982;7.032;2024-03-23T01:32:58;9.32;85.58
68177;DHT22;56478;50.982;7.032;2024-03-23T01:35:23;9.28;85.48
68177;DHT22;56478;50.982;7.032;2024-03-23T01:37:49;9.29;85.75
68177;DHT22;56478;50.982;7.032;2024-03-23T01:40:16;9.35;85.20
68177;DHT22;56478;50.982;7.032;2024-03-23T01:42:42;9.40;85.32
68177;DHT22;56478;50.982;7.032;2024-03-23T01:45:08;9.38;85.17
68177;DHT22;56478;50.982;7.032;2024-03-23T01:47:35;9.43;84.79
68177;DHT22;56478;50.982;7.032;2024-03-23T01:50:01;9.42;85.08
68177;DHT22;56478;50.982;7.032;2024-03-23T01:52:27;9.32;84.78
68177;DHT22;56478;50.982;7.032;2024-03-23T01:54:53;9.26;85.40
68177;DHT22;56478;50.982;7.032;2024-03-23T01:57:19;9.26;85.09
68177;DHT22;56478;50.982;7.032;2024-03-23T01:59:48;9.25;85.04
68177;DHT22;56478;50.982;7.032;2024-03-23T02:02:14;9.08;84.90
68177;DHT22;56478;50.982;7.032;2024-03-23T02:04:40;9.08;84.78
68177;DHT22;56478;50.982;7.032;2024-03-23T02:07:08;9.12;85.28
68177;DHT22;56478;50.982;7.032;2024-03-23T02:09:34;8.97;85.31
68177;DHT22;56478;50.982;7.032;2024-03-23T02:12:01;9.14;84.86
68177;DHT22;56478;50.982;7.032;2024-03-23T02:14:27;9.12;85.13
68177;DHT22;56478;50.982;7.032;2024-03-23T02:16:53;9.07;84.76
68177;DHT22;56478;50.982;7.032;2024-03-23T02:19:18;8.98;85.34
68177;DHT22;56478;50.982;7.032;2024-03-23T02:21:44;9.07;84.87
68177;DHT22;56478;50.982;7.032;2024-03-23T02:24:09;9.11;84.50
68177;DHT22;56478;50.982;7.032;2024-03-23T02:26:35;9.08;84.57
68177;DHT22;56478;50.982;7.032;2024-03-23T02:29:00;9.00;84.42
68177;DHT22;56478;50.982;7.032;2024-03-23T02:31:27;8.92;84.93
68177;DHT22;56478;50.982;7.032;2024-03-23T02:33:52;8.87;84.50
68177;DHT22;56478;50.982;7.032;2024-03-23T02:36:18;8.92;85.18
68177;DHT22;56478;50.982;7.032;2024-03-23T02:38:43;8.94;84.36
68177;DHT22;56478;50.982;7.032;2024-03-23T02:41:09;8.76;83.14
68177;DHT22;56478;50.982;7.032;2024-03-23T02:43:34;8.60;82.99
68177;DHT22;56478;50.982;7.032;2024-03-23T02:46:00;8.62;82.82
68177;DHT22;56478;50.982;7.032;2024-03-23T02:48:26;8.60;82.31
68177;DHT22;56478;50.982;7.032;2024-03-23T02:50:52;8.60;82.35
68177;DHT22;56478;50.982;7.032;2024-03-23T02:53:19;8.50;81.72
68177;DHT22;56478;50.982;7.032;2024-03-23T02:55:45;8.44;81.76
68177;DHT22;56478;50.982;7.032;2024-03-23T02:58:10;8.39;82.00
68177;DHT22;56478;50.982;7.032;2024-03-23T03:00:36;8.37;83.37
68177;DHT22;56478;50.982;7.032;2024-03-23T03:03:02;8.37;83.54
68177;DHT22;56478;50.982;7.032;2024-03-23T03:05:28;8.39;84.03
68177;DHT22;56478;50.982;7.032;2024-03-23T03:07:54;8.45;83.90
68177;DHT22;56478;50.982;7.032;2024-03-23T03:10:19;8.42;83.98
68177;DHT22;56478;50.982;7.032;2024-03-23T03:12:45;8.45;83.95
68177;DHT22;56478;50.982;7.032;2024-03-23T03:15:11;8.52;83.43
68177;DHT22;56478;50.982;7.032;2024-03-23T03:17:36;8.48;83.59
68177;DHT22;56478;50.982;7.032;2024-03-23T03:20:02;8.44;83.30
68177;DHT22;56478;50.982;7.032;2024-03-23T03:22:30;8.49;82.93
68177;DHT22;56478;50.982;7.032;2024-03-23T03:24:55;8.45;82.76
68177;DHT22;56478;50.982;7.032;2024-03-23T03:27:21;8.39;82.25
68177;DHT22;56478;50.982;7.032;2024-03-23T03:29:47;8.46;82.68
68177;DHT22;56478;50.982;7.032;2024-03-23T03:32:13;8.42;83.41
68177;DHT22;56478;50.982;7.032;2024-03-23T03:34:39;8.34;83.14
68177;DHT22;56478;50.982;7.032;2024-03-23T03:37:04;8.34;83.11
68177;DHT22;56478;50.982;7.032;2024-03-23T03:39:30;8.34;83.82
68177;DHT22;56478;50.982;7.032;2024-03-23T03:41:55;8.44;82.51
68177;DHT22;56478;50.982;7.032;2024-03-23T03:44:21;8.35;83.25
68177;DHT22;56478;50.982;7.032;2024-03-23T03:46:47;8.37;81.91
68177;DHT22;56478;50.982;7.032;2024-03-23T03:49:12;8.32;81.78
68177;DHT22;56478;50.982;7.032;2024-03-23T03:51:38;8.25;82.24
68177;DHT22;56478;50.982;7.032;2024-03-23T03:54:03;8.31;81.43
68177;DHT22;56478;50.982;7.032;2024-03-23T03:56:29;8.28;81.71
68177;DHT22;56478;50.982;7.032;2024-03-23T03:58:54;8.28;81.27
68177;DHT22;56478;50.982;7.032;2024-03-23T04:01:20;8.27;81.89
68177;DHT22;56478;50.982;7.032;2024-03-23T04:03:46;8.24;82.64
68177;DHT22;56478;50.982;7.032;2024-03-23T04:06:11;8.25;82.94
68177;DHT22;56478;50.982;7.032;2024-03-23T04:08:37;8.18;83.04
68177;DHT22;56478;50.982;7.032;2024-03-23T04:11:03;8.17;83.09
68177;DHT22;56478;50.982;7.032;2024-03-23T04:13:29;8.12;82.93
68177;DHT22;56478;50.982;7.032;2024-03-23T04:15:55;8.21;82.58
68177;DHT22;56478;50.982;7.032;2024-03-23T04:18:21;8.12;83.59
68177;DHT22;56478;50.982;7.032;2024-03-23T04:20:48;8.11;84.52
68177;DHT22;56478;50.982;7.032;2024-03-23T04:23:14;8.15;84.08
68177;DHT22;56478;50.982;7.032;2024-03-23T04:25:40;8.18;83.79
68177;DHT22;56478;50.982;7.032;2024-03-23T04:28:05;8.14;84.20
68177;DHT22;56478;50.982;7.032;2024-03-23T04:30:32;8.05;83.44
68177;DHT22;56478;50.982;7.032;2024-03-23T04:32:57;8.15;83.66
68177;DHT22;56478;50.982;7.032;2024-03-23T04:35:24;8.14;83.10
68177;DHT22;56478;50.982;7.032;2024-03-23T04:37:55;8.18;83.26
68177;DHT22;56478;50.982;7.032;2024-03-23T04:40:24;8.14;83.83
68177;DHT22;56478;50.982;7.032;2024-03-23T04:42:49;8.14;84.67
68177;DHT22;56478;50.982;7.032;2024-03-23T04:45:15;8.12;84.57
68177;DHT22;56478;50.982;7.032;2024-03-23T04:47:40;7.96;84.17
68177;DHT22;56478;50.982;7.032;2024-03-23T04:50:06;8.01;83.86
68177;DHT22;56478;50.982;7.032;2024-03-23T04:52:32;8.11;84.61
68177;DHT22;56478;50.982;7.032;2024-03-23T04:54:57;8.12;84.50
68177;DHT22;56478;50.982;7.032;2024-03-23T04:57:23;8.14;84.25
68177;DHT22;56478;50.982;7.032;2024-03-23T04:59:48;8.20;84.44
68177;DHT22;56478;50.982;7.032;2024-03-23T05:02:14;8.10;83.42
68177;DHT22;56478;50.982;7.032;2024-03-23T05:04:40;8.10;84.70
68177;DHT22;56478;50.982;7.032;2024-03-23T05:07:06;8.07;83.91
68177;DHT22;56478;50.982;7.032;2024-03-23T05:09:32;8.04;84.24
68177;DHT22;56478;50.982;7.032;2024-03-23T05:12:01;8.05;83.73
68177;DHT22;56478;50.982;7.032;2024-03-23T05:14:27;7.98;83.33
68177;DHT22;56478;50.982;7.032;2024-03-23T05:16:53;8.01;83.69
68177;DHT22;56478;50.982;7.032;2024-03-23T05:19:18;8.07;84.78
68177;DHT22;56478;50.982;7.032;2024-03-23T05:21:44;8.10;83.86
68177;DHT22;56478;50.982;7.032;2024-03-23T05:24:11;8.07;83.63
68177;DHT22;56478;50.982;7.032;2024-03-23T05:26:37;8.07;84.20
68177;DHT22;56478;50.982;7.032;2024-03-23T05:29:03;8.05;84.10
68177;DHT22;56478;50.982;7.032;2024-03-23T05:31:30;8.14;84.70
68177;DHT22;56478;50.982;7.032;2024-03-23T05:33:56;8.08;84.13
68177;DHT22;56478;50.982;7.032;2024-03-23T05:36:22;8.01;83.42
68177;DHT22;56478;50.982;7.032;2024-03-23T05:38:49;8.04;84.00
68177;DHT22;56478;50.982;7.032;2024-03-23T05:41:14;8.11;84.31
68177;DHT22;56478;50.982;7.032;2024-03-23T05:43:40;8.07;83.22
68177;DHT22;56478;50.982;7.032;2024-03-23T05:46:06;7.98;83.48
68177;DHT22;56478;50.982;7.032;2024-03-23T05:48:32;8.01;83.38
68177;DHT22;56478;50.982;7.032;2024-03-23T05:50:58;8.11;83.47
68177;DHT22;56478;50.982;7.032;2024-03-23T05:53:24;8.04;82.92
68177;DHT22;56478;50.982;7.032;2024-03-23T05:55:51;8.07;83.40
68177;DHT22;56478;50.982;7.032;2024-03-23T05:58:19;7.91;83.61
68177;DHT22;56478;50.982;7.032;2024-03-23T06:00:45;7.96;83.80
68177;DHT22;56478;50.982;7.032;2024-03-23T06:03:11;7.96;83.69
68177;DHT22;56478;50.982;7.032;2024-03-23T06:05:37;7.90;84.31
68177;DHT22;56478;50.982;7.032;2024-03-23T06:08:03;7.96;84.09
68177;DHT22;56478;50.982;7.032;2024-03-23T06:10:29;7.86;83.17
68177;DHT22;56478;50.982;7.032;2024-03-23T06:12:55;7.97;84.37
68177;DHT22;56478;50.982;7.032;2024-03-23T06:15:21;7.94;84.41
68177;DHT22;56478;50.982;7.032;2024-03-23T06:17:48;7.91;84.64
68177;DHT22;56478;50.982;7.032;2024-03-23T06:20:14;7.93;84.60
68177;DHT22;56478;50.982;7.032;2024-03-23T06:22:40;7.91;84.29
68177;DHT22;56478;50.982;7.032;2024-03-23T06:25:06;7.96;84.41
68177;DHT22;56478;50.982;7.032;2024-03-23T06:27:32;8.15;84.35
68177;DHT22;56478;50.982;7.032;2024-03-23T06:30:01;8.22;84.34
68177;DHT22;56478;50.982;7.032;2024-03-23T06:32:27;8.24;83.90
68177;DHT22;56478;50.982;7.032;2024-03-23T06:34:54;8.18;84.10
68177;DHT22;56478;50.982;7.032;2024-03-23T06:37:20;8.11;84.10
68177;DHT22;56478;50.982;7.032;2024-03-23T06:39:46;8.04;84.81
68177;DHT22;56478;50.982;7.032;2024-03-23T06:42:12;8.14;84.29
68177;DHT22;56478;50.982;7.032;2024-03-23T06:44:38;8.10;84.59
68177;DHT22;56478;50.982;7.032;2024-03-23T06:47:04;8.11;83.50
68177;DHT22;56478;50.982;7.032;2024-03-23T06:49:30;8.17;83.18
68177;DHT22;56478;50.982;7.032;2024-03-23T06:51:56;8.10;82.76
68177;DHT22;56478;50.982;7.032;2024-03-23T06:54:21;8.17;82.54
68177;DHT22;56478;50.982;7.032;2024-03-23T06:56:47;8.53;81.49
68177;DHT22;56478;50.982;7.032;2024-03-23T06:59:13;9.45;79.51
68177;DHT22;56478;50.982;7.032;2024-03-23T07:01:38;9.57;78.38
68177;DHT22;56478;50.982;7.032;2024-03-23T07:04:04;10.05;76.51
68177;DHT22;56478;50.982;7.032;2024-03-23T07:06:31;10.61;74.43
68177;DHT22;56478;50.982;7.032;2024-03-23T07:08:56;10.39;75.57
68177;DHT22;56478;50.982;7.032;2024-03-23T07:11:22;10.71;74.89
68177;DHT22;56478;50.982;7.032;2024-03-23T07:13:51;10.76;74.05
68177;DHT22;56478;50.982;7.032;2024-03-23T07:16:17;11.01;73.57
68177;DHT22;56478;50.982;7.032;2024-03-23T07:18:43;11.05;73.38
68177;DHT22;56478;50.982;7.032;2024-03-23T07:21:09;11.54;72.47
68177;DHT22;56478;50.982;7.032;2024-03-23T07:23:35;11.43;72.36
68177;DHT22;56478;50.982;7.032;2024-03-23T07:26:02;12.18;69.16
68177;DHT22;56478;50.982;7.032;2024-03-23T07:28:28;13.09;67.58
68177;DHT22;56478;50.982;7.032;2024-03-23T07:31:03;13.48;66.21
68177;DHT22;56478;50.982;7.032;2024-03-23T07:33:29;14.20;63.77
68177;DHT22;56478;50.982;7.032;2024-03-23T07:35:55;14.77;62.53
68177;DHT22;56478;50.982;7.032;2024-03-23T07:38:20;15.41;61.39
68177;DHT22;56478;50.982;7.032;2024-03-23T07:40:46;14.98;60.17
68177;DHT22;56478;50.982;7.032;2024-03-23T07:43:11;15.88;59.51
68177;DHT22;56478;50.982;7.032;2024-03-23T07:45:37;15.19;59.15
68177;DHT22;56478;50.982;7.032;2024-03-23T07:48:04;16.00;58.74
68177;DHT22;56478;50.982;7.032;2024-03-23T07:50:29;15.59;58.61
68177;DHT22;56478;50.982;7.032;2024-03-23T07:52:55;15.95;59.12
68177;DHT22;56478;50.982;7.032;2024-03-23T07:55:21;16.05;58.20
68177;DHT22;56478;50.982;7.032;2024-03-23T07:57:46;15.19;60.37
68177;DHT22;56478;50.982;7.032;2024-03-23T08:00:12;14.30;63.10
68177;DHT22;56478;50.982;7.032;2024-03-23T08:02:38;14.33;61.73
68177;DHT22;56478;50.982;7.032;2024-03-23T08:05:04;16.21;57.99
68177;DHT22;56478;50.982;7.032;2024-03-23T08:07:30;14.82;60.13
68177;DHT22;56478;50.982;7.032;2024-03-23T08:09:56;14.56;61.65
68177;DHT22;56478;50.982;7.032;2024-03-23T08:12:21;16.05;57.82
68177;DHT22;56478;50.982;7.032;2024-03-23T08:14:47;17.81;53.71
68177;DHT22;56478;50.982;7.032;2024-03-23T08:17:12;18.10;51.65
68177;DHT22;56478;50.982;7.032;2024-03-23T08:19:38;18.80;49.94
68177;DHT22;56478;50.982;7.032;2024-03-23T08:22:03;19.32;47.88
68177;DHT22;56478;50.982;7.032;2024-03-23T08:24:29;19.94;46.90
68177;DHT22;56478;50.982;7.032;2024-03-23T08:26:55;20.71;46.41
68177;DHT22;56478;50.982;7.032;2024-03-23T08:29:21;20.35;45.75
68177;DHT22;56478;50.982;7.032;2024-03-23T08:31:46;20.55;43.13
68177;DHT22;56478;50.982;7.032;2024-03-23T08:34:12;19.89;44.64
68177;DHT22;56478;50.982;7.032;2024-03-23T08:36:38;17.16;48.69
68177;DHT22;56478;50.982;7.032;2024-03-23T08:39:03;16.26;53.05
68177;DHT22;56478;50.982;7.032;2024-03-23T08:41:29;15.65;53.57
68177;DHT22;56478;50.982;7.032;2024-03-23T08:43:55;14.82;54.84
68177;DHT22;56478;50.982;7.032;2024-03-23T08:46:21;13.89;55.86
68177;DHT22;56478;50.982;7.032;2024-03-23T08:48:47;13.46;56.15
68177;DHT22;56478;50.982;7.032;2024-03-23T08:51:15;13.79;56.73
68177;DHT22;56478;50.982;7.032;2024-03-23T08:53:41;13.74;56.45
68177;DHT22;56478;50.982;7.032;2024-03-23T08:56:08;14.96;55.74
68177;DHT22;56478;50.982;7.032;2024-03-23T08:58:35;15.88;52.77
68177;DHT22;56478;50.982;7.032;2024-03-23T09:01:06;15.83;54.39
68177;DHT22;56478;50.982;7.032;2024-03-23T09:03:32;16.12;52.28
68177;DHT22;56478;50.982;7.032;2024-03-23T09:05:59;15.20;55.13
68177;DHT22;56478;50.982;7.032;2024-03-23T09:08:25;14.69;55.00
68177;DHT22;56478;50.982;7.032;2024-03-23T09:10:51;13.64;57.80
68177;DHT22;56478;50.982;7.032;2024-03-23T09:13:17;13.23;58.60
68177;DHT22;56478;50.982;7.032;2024-03-23T09:15:48;12.44;61.53
68177;DHT22;56478;50.982;7.032;2024-03-23T09:18:14;12.37;62.28
68177;DHT22;56478;50.982;7.032;2024-03-23T09:20:39;12.12;63.57
68177;DHT22;56478;50.982;7.032;2024-03-23T09:23:05;15.06;57.62
68177;DHT22;56478;50.982;7.032;2024-03-23T09:25:31;15.24;56.21
68177;DHT22;56478;50.982;7.032;2024-03-23T09:27:57;17.19;52.01
68177;DHT22;56478;50.982;7.032;2024-03-23T09:30:23;18.09;46.99
68177;DHT22;56478;50.982;7.032;2024-03-23T09:32:48;17.76;47.86
68177;DHT22;56478;50.982;7.032;2024-03-23T09:35:14;17.92;47.70
68177;DHT22;56478;50.982;7.032;2024-03-23T09:37:40;17.06;49.03
68177;DHT22;56478;50.982;7.032;2024-03-23T09:40:09;18.45;45.51
68177;DHT22;56478;50.982;7.032;2024-03-23T09:42:34;18.76;43.82
68177;DHT22;56478;50.982;7.032;2024-03-23T09:45:00;19.62;44.58
68177;DHT22;56478;50.982;7.032;2024-03-23T09:47:26;20.14;43.27
68177;DHT22;56478;50.982;7.032;2024-03-23T09:49:52;18.41;46.01
68177;DHT22;56478;50.982;7.032;2024-03-23T09:52:18;16.03;50.19
68177;DHT22;56478;50.982;7.032;2024-03-23T09:54:44;14.85;52.72
68177;DHT22;56478;50.982;7.032;2024-03-23T09:57:10;14.69;53.18
68177;DHT22;56478;50.982;7.032;2024-03-23T09:59:35;14.40;53.13
68177;DHT22;56478;50.982;7.032;2024-03-23T10:02:01;14.01;53.67
68177;DHT22;56478;50.982;7.032;2024-03-23T10:04:41;13.95;53.45
68177;DHT22;56478;50.982;7.032;2024-03-23T10:07:18;13.65;53.59
68177;DHT22;56478;50.982;7.032;2024-03-23T10:09:45;13.12;57.16
68177;DHT22;56478;50.982;7.032;2024-03-23T10:12:16;12.91;55.34
68177;DHT22;56478;50.982;7.032;2024-03-23T10:14:42;13.02;56.30
68177;DHT22;56478;50.982;7.032;2024-03-23T10:17:12;12.94;56.45
68177;DHT22;56478;50.982;7.032;2024-03-23T10:19:46;14.81;52.75
68177;DHT22;56478;50.982;7.032;2024-03-23T10:22:22;17.89;45.99
68177;DHT22;56478;50.982;7.032;2024-03-23T10:24:48;19.45;42.59
68177;DHT22;56478;50.982;7.032;2024-03-23T10:27:21;19.75;40.35
68177;DHT22;56478;50.982;7.032;2024-03-23T10:29:50;19.80;38.78
68177;DHT22;56478;50.982;7.032;2024-03-23T10:32:18;18.13;39.90
68177;DHT22;56478;50.982;7.032;2024-03-23T10:34:44;16.43;43.99
68177;DHT22;56478;50.982;7.032;2024-03-23T10:37:10;14.99;46.72
68177;DHT22;56478;50.982;7.032;2024-03-23T10:39:37;14.72;47.98
68177;DHT22;56478;50.982;7.032;2024-03-23T10:42:07;13.86;49.76
68177;DHT22;56478;50.982;7.032;2024-03-23T10:44:34;13.19;52.14
68177;DHT22;56478;50.982;7.032;2024-03-23T10:47:03;12.89;53.72
68177;DHT22;56478;50.982;7.032;2024-03-23T10:49:34;12.73;53.32
68177;DHT22;56478;50.982;7.032;2024-03-23T10:52:02;12.33;56.64
68177;DHT22;56478;50.982;7.032;2024-03-23T10:54:29;11.71;59.83
68177;DHT22;56478;50.982;7.032;2024-03-23T10:57:17;11.05;62.56
68177;DHT22;56478;50.982;7.032;2024-03-23T10:59:44;10.63;64.79
68177;DHT22;56478;50.982;7.032;2024-03-23T11:02:19;10.83;64.21
68177;DHT22;56478;50.982;7.032;2024-03-23T11:04:45;10.73;64.92
68177;DHT22;56478;50.982;7.032;2024-03-23T11:07:31;10.66;66.79
68177;DHT22;56478;50.982;7.032;2024-03-23T11:09:58;9.80;67.67
68177;DHT22;56478;50.982;7.032;2024-03-23T11:14:51;9.63;69.31
68177;DHT22;56478;50.982;7.032;2024-03-23T11:17:24;9.67;69.01
68177;DHT22;56478;50.982;7.032;2024-03-23T11:20:03;9.77;70.23
68177;DHT22;56478;50.982;7.032;2024-03-23T11:22:46;10.22;71.59
68177;DHT22;56478;50.982;7.032;2024-03-23T11:25:22;10.18;70.83
68177;DHT22;56478;50.982;7.032;2024-03-23T11:27:50;9.94;71.40
68177;DHT22;56478;50.982;7.032;2024-03-23T11:32:44;9.14;70.00
68177;DHT22;56478;50.982;7.032;2024-03-23T11:35:10;8.80;69.75
68177;DHT22;56478;50.982;7.032;2024-03-23T11:37:38;8.87;70.80
68177;DHT22;56478;50.982;7.032;2024-03-23T11:40:19;9.24;72.63
68177;DHT22;56478;50.982;7.032;2024-03-23T11:42:45;9.24;72.65
68177;DHT22;56478;50.982;7.032;2024-03-23T11:45:11;9.40;73.00
68177;DHT22;56478;50.982;7.032;2024-03-23T11:47:36;9.78;72.28
68177;DHT22;56478;50.982;7.032;2024-03-23T11:50:02;10.42;72.13
68177;DHT22;56478;50.982;7.032;2024-03-23T11:52:28;10.88;70.93
68177;DHT22;56478;50.982;7.032;2024-03-23T11:55:05;10.87;69.86
68177;DHT22;56478;50.982;7.032;2024-03-23T11:57:33;10.77;68.81
68177;DHT22;56478;50.982;7.032;2024-03-23T11:59:58;10.77;68.97
68177;DHT22;56478;50.982;7.032;2024-03-23T12:02:24;10.85;69.45
68177;DHT22;56478;50.982;7.032;2024-03-23T12:04:49;10.92;69.79
68177;DHT22;56478;50.982;7.032;2024-03-23T12:07:19;10.81;69.71
68177;DHT22;56478;50.982;7.032;2024-03-23T12:10:04;10.76;71.48
68177;DHT22;56478;50.982;7.032;2024-03-23T12:12:31;10.53;69.57
68177;DHT22;56478;50.982;7.032;2024-03-23T12:15:06;10.76;71.23
68177;DHT22;56478;50.982;7.032;2024-03-23T12:17:33;10.83;70.87
68177;DHT22;56478;50.982;7.032;2024-03-23T12:20:01;10.83;71.06
68177;DHT22;56478;50.982;7.032;2024-03-23T12:22:27;10.91;72.58
68177;DHT22;56478;50.982;7.032;2024-03-23T12:24:52;11.14;68.38
68177;DHT22;56478;50.982;7.032;2024-03-23T12:27:18;11.67;69.69
68177;DHT22;56478;50.982;7.032;2024-03-23T12:29:44;11.78;68.58
68177;DHT22;56478;50.982;7.032;2024-03-23T12:32:13;11.14;67.43
68177;DHT22;56478;50.982;7.032;2024-03-23T12:34:39;10.91;67.64
68177;DHT22;56478;50.982;7.032;2024-03-23T12:37:05;10.80;68.38
68177;DHT22;56478;50.982;7.032;2024-03-23T12:39:37;10.84;70.26
68177;DHT22;56478;50.982;7.032;2024-03-23T12:42:03;11.11;68.97
68177;DHT22;56478;50.982;7.032;2024-03-23T12:44:29;11.11;69.71
68177;DHT22;56478;50.982;7.032;2024-03-23T12:46:55;10.87;70.77
68177;DHT22;56478;50.982;7.032;2024-03-23T12:49:20;10.28;71.42
68177;DHT22;56478;50.982;7.032;2024-03-23T12:51:54;9.47;73.40
68177;DHT22;56478;50.982;7.032;2024-03-23T12:54:21;9.57;73.10
68177;DHT22;56478;50.982;7.032;2024-03-23T12:56:47;10.14;72.71
68177;DHT22;56478;50.982;7.032;2024-03-23T12:59:13;10.31;70.82
68177;DHT22;56478;50.982;7.032;2024-03-23T13:01:39;10.71;70.34
68177;DHT22;56478;50.982;7.032;2024-03-23T13:04:05;10.70;72.42
68177;DHT22;56478;50.982;7.032;2024-03-23T13:06:30;11.04;72.46
68177;DHT22;56478;50.982;7.032;2024-03-23T13:09:02;10.92;69.42
68177;DHT22;56478;50.982;7.032;2024-03-23T13:11:29;10.91;68.82
68177;DHT22;56478;50.982;7.032;2024-03-23T13:13:55;11.20;69.25
68177;DHT22;56478;50.982;7.032;2024-03-23T13:16:21;11.63;68.96
68177;DHT22;56478;50.982;7.032;2024-03-23T13:18:46;11.56;68.20
68177;DHT22;56478;50.982;7.032;2024-03-23T13:21:12;11.33;66.52
68177;DHT22;56478;50.982;7.032;2024-03-23T13:23:37;11.47;66.07
68177;DHT22;56478;50.982;7.032;2024-03-23T13:26:05;11.47;65.99
68177;DHT22;56478;50.982;7.032;2024-03-23T13:28:30;11.16;65.62
68177;DHT22;56478;50.982;7.032;2024-03-23T13:30:56;11.26;65.11
68177;DHT22;56478;50.982;7.032;2024-03-23T13:33:29;11.42;67.10
68177;DHT22;56478;50.982;7.032;2024-03-23T13:35:56;12.04;66.56
68177;DHT22;56478;50.982;7.032;2024-03-23T13:38:22;11.99;63.24
68177;DHT22;56478;50.982;7.032;2024-03-23T13:40:54;12.08;65.00
68177;DHT22;56478;50.982;7.032;2024-03-23T13:43:20;12.11;65.61
68177;DHT22;56478;50.982;7.032;2024-03-23T13:45:55;12.43;65.44
68177;DHT22;56478;50.982;7.032;2024-03-23T13:48:23;12.51;62.18
68177;DHT22;56478;50.982;7.032;2024-03-23T13:51:02;12.36;61.41
68177;DHT22;56478;50.982;7.032;2024-03-23T13:53:28;12.42;60.60
68177;DHT22;56478;50.982;7.032;2024-03-23T13:55:54;12.08;62.00
68177;DHT22;56478;50.982;7.032;2024-03-23T13:58:20;12.09;62.27
68177;DHT22;56478;50.982;7.032;2024-03-23T14:00:45;11.75;61.03
68177;DHT22;56478;50.982;7.032;2024-03-23T14:03:12;11.32;62.62
68177;DHT22;56478;50.982;7.032;2024-03-23T14:05:39;11.07;62.28
68177;DHT22;56478;50.982;7.032;2024-03-23T14:08:09;11.05;62.95
68177;DHT22;56478;50.982;7.032;2024-03-23T14:10:35;10.76;63.59
68177;DHT22;56478;50.982;7.032;2024-03-23T14:13:03;10.56;63.13
68177;DHT22;56478;50.982;7.032;2024-03-23T14:15:29;10.31;62.09
68177;DHT22;56478;50.982;7.032;2024-03-23T14:17:58;10.36;62.20
68177;DHT22;56478;50.982;7.032;2024-03-23T14:20:24;10.31;61.29
68177;DHT22;56478;50.982;7.032;2024-03-23T14:22:49;10.45;62.16
68177;DHT22;56478;50.982;7.032;2024-03-23T14:25:15;10.92;61.19
68177;DHT22;56478;50.982;7.032;2024-03-23T14:27:44;11.07;60.96
68177;DHT22;56478;50.982;7.032;2024-03-23T14:30:10;11.16;61.57
68177;DHT22;56478;50.982;7.032;2024-03-23T14:32:35;11.05;60.62
68177;DHT22;56478;50.982;7.032;2024-03-23T14:35:06;11.01;61.61
68177;DHT22;56478;50.982;7.032;2024-03-23T14:37:38;11.09;60.68
68177;DHT22;56478;50.982;7.032;2024-03-23T14:40:05;11.14;60.90
68177;DHT22;56478;50.982;7.032;2024-03-23T14:42:32;11.37;60.23
68177;DHT22;56478;50.982;7.032;2024-03-23T14:44:58;11.25;62.71
68177;DHT22;56478;50.982;7.032;2024-03-23T14:47:23;11.15;61.24
68177;DHT22;56478;50.982;7.032;2024-03-23T14:49:49;11.00;58.98
68177;DHT22;56478;50.982;7.032;2024-03-23T14:52:19;10.84;59.94
68177;DHT22;56478;50.982;7.032;2024-03-23T14:54:45;10.48;60.95
68177;DHT22;56478;50.982;7.032;2024-03-23T14:57:11;10.19;60.54
68177;DHT22;56478;50.982;7.032;2024-03-23T14:59:37;10.25;61.91
68177;DHT22;56478;50.982;7.032;2024-03-23T15:02:08;9.81;63.22
68177;DHT22;56478;50.982;7.032;2024-03-23T15:04:34;9.52;65.65
68177;DHT22;56478;50.982;7.032;2024-03-23T15:07:00;9.32;66.10
68177;DHT22;56478;50.982;7.032;2024-03-23T15:09:26;9.39;65.08
68177;DHT22;56478;50.982;7.032;2024-03-23T15:11:51;9.14;64.98
68177;DHT22;56478;50.982;7.032;2024-03-23T15:14:17;9.05;64.93
68177;DHT22;56478;50.982;7.032;2024-03-23T15:16:42;8.92;66.55
68177;DHT22;56478;50.982;7.032;2024-03-23T15:19:08;8.96;67.22
68177;DHT22;56478;50.982;7.032;2024-03-23T15:21:34;8.73;65.83
68177;DHT22;56478;50.982;7.032;2024-03-23T15:24:00;8.80;67.14
68177;DHT22;56478;50.982;7.032;2024-03-23T15:26:26;8.91;67.60
68177;DHT22;56478;50.982;7.032;2024-03-23T15:28:51;9.22;66.79
68177;DHT22;56478;50.982;7.032;2024-03-23T15:31:23;9.66;64.61
68177;DHT22;56478;50.982;7.032;2024-03-23T15:33:49;9.77;65.35
68177;DHT22;56478;50.982;7.032;2024-03-23T15:36:15;9.64;63.89
68177;DHT22;56478;50.982;7.032;2024-03-23T15:38:41;9.73;64.53
68177;DHT22;56478;50.982;7.032;2024-03-23T15:41:08;9.81;64.44
68177;DHT22;56478;50.982;7.032;2024-03-23T15:43:34;9.84;64.77
68177;DHT22;56478;50.982;7.032;2024-03-23T15:46:00;9.98;63.77
68177;DHT22;56478;50.982;7.032;2024-03-23T15:48:29;9.97;64.43
68177;DHT22;56478;50.982;7.032;2024-03-23T15:50:59;9.90;63.56
68177;DHT22;56478;50.982;7.032;2024-03-23T15:53:26;9.69;64.36
68177;DHT22;56478;50.982;7.032;2024-03-23T15:56:02;9.56;65.28
68177;DHT22;56478;50.982;7.032;2024-03-23T15:58:29;9.70;65.23
68177;DHT22;56478;50.982;7.032;2024-03-23T16:03:21;9.45;67.28
68177;DHT22;56478;50.982;7.032;2024-03-23T16:05:53;9.22;66.69
68177;DHT22;56478;50.982;7.032;2024-03-23T16:08:19;9.22;68.04
68177;DHT22;56478;50.982;7.032;2024-03-23T16:10:45;9.17;67.93
68177;DHT22;56478;50.982;7.032;2024-03-23T16:13:10;9.22;68.94
68177;DHT22;56478;50.982;7.032;2024-03-23T16:15:36;9.29;68.40
68177;DHT22;56478;50.982;7.032;2024-03-23T16:18:02;9.32;69.14
68177;DHT22;56478;50.982;7.032;2024-03-23T16:20:28;9.38;68.72
68177;DHT22;56478;50.982;7.032;2024-03-23T16:22:53;9.03;68.69
68177;DHT22;56478;50.982;7.032;2024-03-23T16:25:19;9.10;69.49
68177;DHT22;56478;50.982;7.032;2024-03-23T16:27:45;9.04;69.68
68177;DHT22;56478;50.982;7.032;2024-03-23T16:30:11;9.07;70.76
68177;DHT22;56478;50.982;7.032;2024-03-23T16:32:37;9.12;71.04
68177;DHT22;56478;50.982;7.032;2024-03-23T16:35:04;9.07;68.93
68177;DHT22;56478;50.982;7.032;2024-03-23T16:37:30;9.11;69.27